createdAt,value
2023-04-01T00:00:24.641Z,97.47
2023-04-01T00:05:47.468Z,97.31
2023-04-01T00:10:50.176Z,97.75
2023-04-01T00:15:53.543Z,98.01
2023-04-01T00:20:56.100Z,98.04
2023-04-01T00:26:01.783Z,97.94
2023-04-01T00:31:07.276Z,98.17
2023-04-01T00:36:15.722Z,98.19
2023-04-01T00:41:20.333Z,98.18
2023-04-01T00:46:22.893Z,98.02
2023-04-01T00:51:29.975Z,98.18
2023-04-01T00:56:37.738Z,97.87
2023-04-01T01:01:40.719Z,97.68
2023-04-01T01:07:05.479Z,97.74
2023-04-01T01:12:20.770Z,97.48
2023-04-01T01:17:51.908Z,97.50
2023-04-01T01:23:00.644Z,97.20
2023-04-01T01:28:24.981Z,97.27
2023-04-01T01:33:43.307Z,97.48
2023-04-01T01:38:48.418Z,97.56
2023-04-01T01:43:54.510Z,97.72
2023-04-01T01:48:58.811Z,97.39
2023-04-01T01:54:01.290Z,97.20
2023-04-01T01:59:09.587Z,96.92
2023-04-01T02:04:15.773Z,97.15
2023-04-01T02:09:19.721Z,97.53
2023-04-01T02:14:26.094Z,97.67
2023-04-01T02:19:34.749Z,97.87
2023-04-01T02:24:39.739Z,98.16
2023-04-01T02:29:42.346Z,98.01
2023-04-01T02:34:45.456Z,98.01
2023-04-01T02:39:48.000Z,97.91
2023-04-01T02:44:50.525Z,97.66
2023-04-01T02:49:58.826Z,97.36
2023-04-01T02:55:01.623Z,97.71
2023-04-01T03:00:04.656Z,97.61
2023-04-01T03:05:08.102Z,97.31
2023-04-01T03:10:11.236Z,97.47
2023-04-01T03:15:15.618Z,97.90
2023-04-01T03:20:18.555Z,98.13
2023-04-01T03:25:21.167Z,98.23
2023-04-01T03:30:24.237Z,98.27
2023-04-01T03:35:27.350Z,98.53
2023-04-01T03:40:29.866Z,98.74
2023-04-01T03:45:32.486Z,98.88
2023-04-01T03:50:35.738Z,99.14
2023-04-01T03:55:39.194Z,99.43
2023-04-01T04:00:41.724Z,99.69
2023-04-01T04:05:48.862Z,99.69
2023-04-01T04:10:57.738Z,99.69
2023-04-01T04:16:00.358Z,99.91
2023-04-01T04:21:04.133Z,100.00
2023-04-01T04:26:08.751Z,100.00
2023-04-01T04:31:11.488Z,100.00
2023-04-01T04:36:14.702Z,100.00
2023-04-01T04:41:20.340Z,100.00
2023-04-01T04:46:23.747Z,100.00
2023-04-01T04:51:26.842Z,100.00
2023-04-01T04:56:29.443Z,100.00
2023-04-01T05:01:32.044Z,100.00
2023-04-01T05:06:34.666Z,100.00
2023-04-01T05:11:37.463Z,100.00
2023-04-01T05:16:40.020Z,100.00
2023-04-01T05:21:42.577Z,100.00
2023-04-01T05:26:45.337Z,100.00
2023-04-01T05:31:47.830Z,100.00
2023-04-01T05:36:50.284Z,100.00
2023-04-01T05:41:52.885Z,100.00
2023-04-01T05:46:55.625Z,100.00
2023-04-01T05:51:58.392Z,100.00
2023-04-01T05:57:03.049Z,100.00
2023-04-01T06:02:05.666Z,99.88
2023-04-01T06:07:16.901Z,99.71
2023-04-01T06:12:57.519Z,99.75
2023-04-01T06:18:31.990Z,99.77
2023-04-01T06:24:07.546Z,99.72
2023-04-01T06:29:29.136Z,98.97
2023-04-01T06:34:50.793Z,98.70
2023-04-01T06:40:09.281Z,98.56
2023-04-01T06:45:20.009Z,98.55
2023-04-01T06:50:42.648Z,98.54
2023-04-01T06:55:53.630Z,98.17
2023-04-01T07:01:01.235Z,98.16
2023-04-01T07:06:06.514Z,98.30
2023-04-01T07:11:31.534Z,97.53
2023-04-01T07:16:40.650Z,96.92
2023-04-01T07:21:57.840Z,96.62
2023-04-01T07:27:00.480Z,96.68
2023-04-01T07:32:22.349Z,96.59
2023-04-01T07:37:46.271Z,96.65
2023-04-01T07:43:21.115Z,97.02
2023-04-01T07:48:55.758Z,96.74
2023-04-01T07:54:14.022Z,96.87
2023-04-01T07:59:40.970Z,96.88
2023-04-01T08:05:15.318Z,97.10
2023-04-01T08:10:24.619Z,96.83
2023-04-01T08:15:43.450Z,95.81
2023-04-01T08:20:51.925Z,95.38
2023-04-01T08:26:14.796Z,95.38
2023-04-01T08:31:36.981Z,94.74
2023-04-01T08:36:45.290Z,94.16
2023-04-01T08:41:59.648Z,94.02
2023-04-01T08:47:34.034Z,92.50
2023-04-01T08:53:09.679Z,91.75
2023-04-01T08:58:20.915Z,91.93
2023-04-01T09:03:42.330Z,91.40
2023-04-01T09:09:03.777Z,90.66
2023-04-01T09:14:22.320Z,89.46
2023-04-01T09:19:30.786Z,89.05
2023-04-01T09:24:47.715Z,87.98
2023-04-01T09:30:09.670Z,85.98
2023-04-01T09:35:25.456Z,85.17
2023-04-01T09:40:38.423Z,85.19
2023-04-01T09:45:48.534Z,84.66
2023-04-01T09:51:17.764Z,84.38
2023-04-01T09:56:28.308Z,84.82
2023-04-01T10:01:46.882Z,85.24
2023-04-01T10:07:32.838Z,85.57
2023-04-01T10:12:41.346Z,85.43
2023-04-01T10:18:06.316Z,85.27
2023-04-01T10:23:40.888Z,84.99
2023-04-01T10:29:19.690Z,84.31
2023-04-01T10:34:41.062Z,84.00
2023-04-01T10:40:15.496Z,84.46
2023-04-01T10:45:37.476Z,84.18
2023-04-01T10:50:56.168Z,83.24
2023-04-01T10:56:14.557Z,83.35
2023-04-01T11:01:20.804Z,83.98
2023-04-01T11:06:57.292Z,83.42
2023-04-01T11:12:16.077Z,83.48
2023-04-01T11:17:18.571Z,83.73
2023-04-01T11:22:27.915Z,83.55
2023-04-01T11:28:04.299Z,82.85
2023-04-01T11:33:21.872Z,82.76
2023-04-01T11:38:43.100Z,82.19
2023-04-01T11:44:18.366Z,82.26
2023-04-01T11:49:48.767Z,82.13
2023-04-01T11:55:18.963Z,82.27
2023-04-01T12:00:33.972Z,82.23
2023-04-01T12:05:59.622Z,82.55
2023-04-01T12:11:16.785Z,82.78
2023-04-01T12:16:25.694Z,83.41
2023-04-01T12:21:49.850Z,83.49
2023-04-01T12:27:08.350Z,83.53
2023-04-01T12:32:29.595Z,83.15
2023-04-01T12:38:04.163Z,82.79
2023-04-01T12:43:36.858Z,82.62
2023-04-01T12:48:55.638Z,82.56
2023-04-01T12:54:20.510Z,82.71
2023-04-01T12:59:55.607Z,83.10
2023-04-01T13:05:30.456Z,83.29
2023-04-01T13:10:43.080Z,82.53
2023-04-01T13:16:00.933Z,82.71
2023-04-01T13:21:10.608Z,83.11
2023-04-01T13:26:51.295Z,82.95
2023-04-01T13:32:15.531Z,83.08
2023-04-01T13:37:43.054Z,83.22
2023-04-01T13:42:54.865Z,83.44
2023-04-01T13:48:16.593Z,84.17
2023-04-01T13:53:35.511Z,85.40
2023-04-01T13:58:49.968Z,86.57
2023-04-01T14:03:57.266Z,87.82
2023-04-01T14:09:16.085Z,88.59
2023-04-01T14:14:37.989Z,89.20
2023-04-01T14:20:14.719Z,89.84
2023-04-01T14:25:37.053Z,90.81
2023-04-01T14:30:59.235Z,91.26
2023-04-01T14:36:39.696Z,91.91
2023-04-01T14:42:00.430Z,92.69
2023-04-01T14:47:44.196Z,93.01
2023-04-01T14:53:07.502Z,93.42
2023-04-01T14:58:13.766Z,93.88
2023-04-01T15:03:28.099Z,93.90
2023-04-01T15:08:39.210Z,94.61
2023-04-01T15:14:14.063Z,95.28
2023-04-01T15:19:43.821Z,95.88
2023-04-01T15:25:13.019Z,96.27
2023-04-01T15:30:38.338Z,97.64
2023-04-01T15:36:16.762Z,98.12
2023-04-01T15:41:37.026Z,98.51
2023-04-01T15:46:47.749Z,98.34
2023-04-01T15:52:04.917Z,98.59
2023-04-01T15:57:31.242Z,98.66
2023-04-01T16:03:10.336Z,98.78
2023-04-01T16:08:36.343Z,99.07
2023-04-01T16:14:11.000Z,99.31
2023-04-01T16:19:26.362Z,99.07
2023-04-01T16:24:47.898Z,98.98
2023-04-01T16:29:56.341Z,98.86
2023-04-01T16:35:15.671Z,98.57
2023-04-01T16:40:27.067Z,98.17
2023-04-01T16:45:29.602Z,98.62
2023-04-01T16:50:40.857Z,98.97
2023-04-01T16:56:06.179Z,99.14
2023-04-01T17:01:17.177Z,99.39
2023-04-01T17:06:44.269Z,98.89
2023-04-01T17:12:06.066Z,98.28
2023-04-01T17:17:41.762Z,98.47
2023-04-01T17:23:02.745Z,98.03
2023-04-01T17:28:11.630Z,97.22
2023-04-01T17:33:43.191Z,97.21
2023-04-01T17:39:07.833Z,97.16
2023-04-01T17:44:26.295Z,96.67
2023-04-01T17:49:35.026Z,96.65
2023-04-01T17:54:59.383Z,96.59
2023-04-01T18:00:17.907Z,96.50
2023-04-01T18:05:31.700Z,96.33
2023-04-01T18:10:52.613Z,96.60
2023-04-01T18:16:28.062Z,96.03
2023-04-01T18:21:51.433Z,96.30
2023-04-01T18:27:10.017Z,96.42
2023-04-01T18:32:25.390Z,97.09
2023-04-01T18:37:42.538Z,97.46
2023-04-01T18:42:56.692Z,97.65
2023-04-01T18:48:32.891Z,97.57
2023-04-01T18:53:35.569Z,96.89
2023-04-01T18:58:59.979Z,96.75
2023-04-01T19:04:39.683Z,97.09
2023-04-01T19:09:48.634Z,97.65
2023-04-01T19:15:00.759Z,97.25
2023-04-01T19:20:03.412Z,96.69
2023-04-01T19:25:34.309Z,96.29
2023-04-01T19:31:00.700Z,96.59
2023-04-01T19:36:10.962Z,97.12
2023-04-01T19:41:36.318Z,96.87
2023-04-01T19:47:10.308Z,96.85
2023-04-01T19:52:20.822Z,96.54
2023-04-01T19:57:33.707Z,95.90
2023-04-01T20:03:01.082Z,95.94
2023-04-01T20:08:19.645Z,96.23
2023-04-01T20:13:38.141Z,96.17
2023-04-01T20:18:46.587Z,95.72
2023-04-01T20:23:59.165Z,95.45
2023-04-01T20:29:28.657Z,95.70
2023-04-01T20:34:31.865Z,95.62
2023-04-01T20:39:46.887Z,95.56
2023-04-01T20:45:08.466Z,95.95
2023-04-01T20:50:27.267Z,95.61
2023-04-01T20:55:52.096Z,95.60
2023-04-01T21:01:03.964Z,95.31
2023-04-01T21:06:33.954Z,95.05
2023-04-01T21:12:09.650Z,94.92
2023-04-01T21:17:46.477Z,94.92
2023-04-01T21:22:56.230Z,95.01
2023-04-01T21:28:14.680Z,95.09
2023-04-01T21:33:36.241Z,95.08
2023-04-01T21:39:01.265Z,95.25
2023-04-01T21:44:36.025Z,94.90
2023-04-01T21:49:48.544Z,94.94
2023-04-01T21:55:23.448Z,95.24
2023-04-01T22:01:02.688Z,95.50
2023-04-01T22:06:46.227Z,95.39
2023-04-01T22:12:15.777Z,95.28
2023-04-01T22:17:55.771Z,95.09
2023-04-01T22:23:18.488Z,95.31
2023-04-01T22:28:52.218Z,95.22
2023-04-01T22:34:26.129Z,94.65
2023-04-01T22:39:49.884Z,94.56
2023-04-01T22:45:09.452Z,94.36
2023-04-01T22:50:28.879Z,93.78
2023-04-01T22:55:39.112Z,94.03
2023-04-01T23:01:01.018Z,93.82
2023-04-01T23:06:05.772Z,94.03
2023-04-01T23:11:16.265Z,94.04
2023-04-01T23:16:24.497Z,94.26
2023-04-01T23:21:30.182Z,93.94
2023-04-01T23:26:48.800Z,93.38
2023-04-01T23:32:02.628Z,93.40
2023-04-01T23:37:12.476Z,93.35
2023-04-01T23:42:32.631Z,93.81
2023-04-01T23:47:39.144Z,93.20
2023-04-01T23:52:47.304Z,93.07
2023-04-01T23:58:05.911Z,93.78
